Time;durP1;ratioP1;P1;durP2;ratioP2;P2;SDS_P1;SDS_P2;PMS_P1;PMS_P2;Temp;Humidity;BMP_temperature;BMP_pressure;BME280_temperature;BME280_humidity;BME280_pressure;Samples;Min_cycle;Max_cycle;Signal;HPM_P1;HPM_P2
2021/09/03 00:00:55;;;;;;;4.75;3.30;;;;;;;21.96;35.39;100191.09;5037403;28;20030;-48
2021/09/03 00:03:21;;;;;;;7.10;3.35;;;;;;;21.67;35.88;100192.38;5049851;28;20087;-49
2021/09/03 00:05:46;;;;;;;4.68;3.28;;;;;;;21.72;35.63;100193.47;5040202;28;20102;-48
2021/09/03 00:08:12;;;;;;;5.32;3.15;;;;;;;21.82;35.86;100186.19;5043465;28;20026;-49
2021/09/03 00:10:37;;;;;;;7.05;3.58;;;;;;;22.15;35.32;100197.63;5047420;28;20072;-49
2021/09/03 00:13:03;;;;;;;4.53;3.35;;;;;;;22.10;35.20;100199.53;5036929;28;20091;-49
2021/09/03 00:15:28;;;;;;;6.40;3.15;;;;;;;21.84;35.54;100196.78;5049149;28;20021;-48
2021/09/03 00:17:54;;;;;;;5.18;3.38;;;;;;;21.72;35.96;100194.28;5040913;28;20028;-49
2021/09/03 00:20:20;;;;;;;4.10;3.33;;;;;;;21.66;36.28;100190.75;5041466;28;20025;-49
2021/09/03 00:22:45;;;;;;;4.70;3.40;;;;;;;21.77;35.82;100198.91;5048195;28;20115;-49
2021/09/03 00:25:11;;;;;;;5.28;3.28;;;;;;;21.54;36.59;100195.59;5034702;28;20022;-47
2021/09/03 00:27:37;;;;;;;5.65;3.17;;;;;;;21.61;36.54;100198.03;5037239;28;20023;-49
2021/09/03 00:30:04;;;;;;;3.95;3.20;;;;;;;21.77;36.02;100201.63;5044273;28;20075;-48
2021/09/03 00:32:29;;;;;;;4.28;3.55;;;;;;;21.76;35.96;100203.53;5045364;28;20021;-47
2021/09/03 00:34:54;;;;;;;4.45;3.28;;;;;;;21.93;35.86;100199.75;5036717;28;20036;-47
2021/09/03 00:37:20;;;;;;;5.75;3.60;;;;;;;21.58;36.12;100193.97;5049347;28;20033;-49
2021/09/03 00:39:45;;;;;;;5.40;3.28;;;;;;;21.51;36.19;100198.81;5039418;28;20054;-50
2021/09/03 00:42:11;;;;;;;4.25;3.30;;;;;;;21.35;36.83;100205.25;5042589;28;20504;-48
2021/09/03 00:44:38;;;;;;;5.07;3.05;;;;;;;21.84;35.58;100197.59;5046437;28;20092;-48
2021/09/03 00:47:03;;;;;;;6.75;3.33;;;;;;;21.32;36.68;100198.44;5050470;28;20035;-47
2021/09/03 00:49:28;;;;;;;5.18;3.30;;;;;;;21.31;36.88;100193.31;5037121;28;20373;-49
2021/09/03 00:51:54;;;;;;;4.80;3.42;;;;;;;21.40;36.82;100192.53;5044850;28;20115;-50
2021/09/03 00:54:19;;;;;;;4.97;3.05;;;;;;;21.79;35.99;100188.63;5044252;28;20028;-50
2021/09/03 00:56:45;;;;;;;5.50;3.53;;;;;;;21.56;36.08;100187.22;5036235;28;20480;-49
2021/09/03 00:59:11;;;;;;;4.18;3.40;;;;;;;21.36;37.02;100193.31;5031163;28;20476;-50
2021/09/03 01:01:36;;;;;;;5.13;3.45;;;;;;;21.79;36.01;100183.22;5037737;28;20102;-49
2021/09/03 01:04:02;;;;;;;5.93;3.50;;;;;;;21.82;36.05;100185.41;5043344;28;20022;-50
2021/09/03 01:06:27;;;;;;;7.18;3.40;;;;;;;22.00;35.51;100187.59;5044562;28;20427;-49
2021/09/03 01:08:53;;;;;;;6.13;3.40;;;;;;;21.82;35.73;100178.09;5034931;28;20461;-49
2021/09/03 01:11:18;;;;;;;5.30;3.30;;;;;;;21.77;36.23;100183.47;5048795;28;20060;-49
2021/09/03 01:13:44;;;;;;;4.68;3.40;;;;;;;21.63;36.58;100176.94;5038021;28;20040;-50
2021/09/03 01:16:09;;;;;;;4.05;3.30;;;;;;;21.55;36.76;100175.56;5042118;28;20497;-49
2021/09/03 01:18:35;;;;;;;4.55;3.50;;;;;;;21.55;36.58;100175.56;5045179;28;20048;-47
2021/09/03 01:21:00;;;;;;;4.03;3.40;;;;;;;21.52;36.35;100178.00;5035364;28;20095;-49
2021/09/03 01:23:26;;;;;;;6.88;3.50;;;;;;;21.22;37.20;100177.56;5048009;28;20747;-51
2021/09/03 01:25:52;;;;;;;5.40;3.45;;;;;;;21.57;36.55;100172.56;5031841;28;20029;-47
2021/09/03 01:28:18;;;;;;;5.53;3.30;;;;;;;21.57;36.28;100164.44;5042842;28;20111;-50
2021/09/03 01:30:43;;;;;;;4.93;3.35;;;;;;;21.85;35.92;100172.09;5036105;28;20033;-47
2021/09/03 01:33:09;;;;;;;5.03;3.45;;;;;;;21.85;36.05;100172.09;5048005;28;20457;-48
2021/09/03 01:35:34;;;;;;;4.30;3.25;;;;;;;21.92;35.92;100168.34;5036574;28;20496;-48
2021/09/03 01:38:00;;;;;;;4.57;3.40;;;;;;;21.90;36.17;100174.03;5043068;28;20036;-50
2021/09/03 01:40:26;;;;;;;5.13;3.60;;;;;;;21.70;36.24;100166.66;5044190;28;20098;-49
2021/09/03 01:42:51;;;;;;;5.13;3.83;;;;;;;21.71;36.27;100165.59;5036227;28;20041;-46
2021/09/03 01:45:16;;;;;;;6.32;4.03;;;;;;;21.74;36.34;100158.81;5031353;28;20033;-46
2021/09/03 01:47:42;;;;;;;4.88;3.70;;;;;;;21.79;36.01;100158.84;5037662;28;20445;-48
2021/09/03 01:50:08;;;;;;;4.20;3.40;;;;;;;21.67;36.56;100154.47;5041617;28;20037;-48
2021/09/03 01:52:33;;;;;;;5.97;3.33;;;;;;;21.77;36.28;100148.25;5044471;28;20527;-46
2021/09/03 01:54:59;;;;;;;6.82;3.25;;;;;;;21.56;36.40;100146.59;5034637;28;20104;-47
2021/09/03 01:57:24;;;;;;;6.57;3.58;;;;;;;21.62;36.52;100149.03;5047403;28;20014;-48
2021/09/03 01:59:50;;;;;;;5.47;3.70;;;;;;;21.60;36.76;100151.19;5031169;28;20026;-48
2021/09/03 02:02:15;;;;;;;7.25;3.80;;;;;;;21.62;36.79;100151.75;5041785;28;20461;-50
2021/09/03 02:04:40;;;;;;;14.13;10.18;;;;;;;21.82;36.59;100150.19;5036796;28;20026;-51
2021/09/03 02:07:06;;;;;;;7.05;5.30;;;;;;;21.79;36.85;100148.81;5048216;28;20021;-50
2021/09/03 02:09:31;;;;;;;20.67;14.18;;;;;;;21.77;36.89;100142.84;5034478;28;20390;-49
2021/09/03 02:11:57;;;;;;;25.17;17.45;;;;;;;21.29;37.74;100144.84;5042775;28;20021;-48
2021/09/03 02:14:22;;;;;;;6.43;4.30;;;;;;;21.43;37.52;100142.47;5043556;28;20021;-47
2021/09/03 02:16:48;;;;;;;7.32;4.32;;;;;;;21.64;36.98;100146.06;5036020;28;20029;-48
2021/09/03 02:19:13;;;;;;;5.68;3.80;;;;;;;21.82;36.57;100145.56;5047747;28;20086;-47
2021/09/03 02:21:41;;;;;;;5.20;3.50;;;;;;;21.44;36.86;100152.25;5036827;28;20036;-49
2021/09/03 02:24:06;;;;;;;4.18;3.30;;;;;;;21.57;36.57;100142.78;5041292;28;20029;-47
2021/09/03 02:26:31;;;;;;;4.90;3.70;;;;;;;21.28;37.04;100140.50;5030915;28;20032;-48
2021/09/03 02:28:57;;;;;;;5.90;3.95;;;;;;;21.48;36.60;100145.22;5047371;28;20028;-49
2021/09/03 02:31:23;;;;;;;5.43;3.78;;;;;;;21.37;36.77;100147.03;5034169;28;20119;-49
2021/09/03 02:33:49;;;;;;;8.07;4.20;;;;;;;21.27;36.81;100138.91;5043313;28;20496;-49
2021/09/03 02:36:14;;;;;;;5.40;3.58;;;;;;;21.26;37.26;100142.66;5041330;28;20056;-46
2021/09/03 02:38:40;;;;;;;5.25;3.65;;;;;;;21.44;36.73;100150.34;5036533;28;20374;-50
2021/09/03 02:41:05;;;;;;;7.60;3.38;;;;;;;21.40;37.11;100148.41;5047027;28;20028;-46
2021/09/03 02:43:31;;;;;;;5.03;3.88;;;;;;;21.48;37.09;100158.75;5034783;28;20030;-47
2021/09/03 02:45:56;;;;;;;5.47;3.60;;;;;;;21.38;36.90;100151.38;5049466;28;20033;-50
2021/09/03 02:48:22;;;;;;;6.13;3.60;;;;;;;21.21;36.99;100153.47;5038959;28;20462;-49
2021/09/03 02:50:47;;;;;;;5.78;3.55;;;;;;;21.27;37.33;100152.44;5045261;28;20021;-47
2021/09/03 02:53:12;;;;;;;6.65;3.65;;;;;;;21.34;36.95;100157.59;5034084;28;20087;-47
2021/09/03 02:55:38;;;;;;;5.25;3.90;;;;;;;21.42;36.78;100157.09;5044857;28;20654;-47
2021/09/03 02:58:03;;;;;;;5.50;3.47;;;;;;;21.35;36.82;100165.44;5039691;28;20090;-50
2021/09/03 03:00:29;;;;;;;5.25;3.75;;;;;;;21.43;36.75;100164.13;5037837;28;20028;-48
2021/09/03 03:02:54;;;;;;;5.28;3.63;;;;;;;21.40;36.92;100160.06;5046634;28;20021;-49
2021/09/03 03:05:23;;;;;;;4.95;3.60;;;;;;;21.31;37.10;100163.53;5033383;28;20485;-49
2021/09/03 03:07:48;;;;;;;4.82;3.60;;;;;;;21.37;37.00;100157.88;5043447;28;20386;-48
2021/09/03 03:10:14;;;;;;;5.28;3.85;;;;;;;21.49;36.61;100157.66;5040619;28;20059;-49
2021/09/03 03:12:39;;;;;;;7.00;5.38;;;;;;;21.49;36.97;100160.38;5036182;28;20052;-50
2021/09/03 03:15:06;;;;;;;11.73;5.63;;;;;;;21.43;37.42;100167.63;5046586;28;20074;-50
2021/09/03 03:17:31;;;;;;;9.18;4.70;;;;;;;21.40;37.12;100164.63;5035021;28;20032;-47
2021/09/03 03:19:56;;;;;;;8.27;4.80;;;;;;;21.34;37.38;100155.69;5041799;28;20025;-51
2021/09/03 03:22:22;;;;;;;9.52;5.50;;;;;;;21.33;37.08;100159.47;5041814;28;20034;-47
2021/09/03 03:24:47;;;;;;;7.15;4.93;;;;;;;21.28;37.49;100154.03;5035112;28;20029;-48
2021/09/03 03:27:13;;;;;;;6.13;4.10;;;;;;;21.30;37.43;100149.16;5032309;28;20485;-48
2021/09/03 03:29:38;;;;;;;6.22;3.90;;;;;;;21.45;40.00;100159.28;5043818;28;20009;-49
2021/09/03 03:32:04;;;;;;;7.20;4.05;;;;;;;21.59;39.22;100151.47;5039088;28;20091;-49
2021/09/03 03:34:29;;;;;;;8.38;3.83;;;;;;;21.73;41.63;100149.88;5036765;28;20021;-47
2021/09/03 03:36:55;;;;;;;6.22;3.78;;;;;;;21.85;38.60;100145.03;5045744;28;20021;-48
2021/09/03 03:39:20;;;;;;;8.52;4.90;;;;;;;21.95;37.58;100156.97;5033037;28;20021;-50
2021/09/03 03:41:46;;;;;;;8.98;4.25;;;;;;;21.96;37.24;100153.97;5042605;28;20374;-47
2021/09/03 03:44:12;;;;;;;6.55;4.35;;;;;;;21.95;37.00;100152.38;5039691;28;20018;-50
2021/09/03 03:46:37;;;;;;;6.72;4.55;;;;;;;21.75;37.02;100155.84;5048130;28;20554;-48
2021/09/03 03:49:02;;;;;;;7.10;4.40;;;;;;;21.39;37.92;100144.06;5032283;28;20033;-48
2021/09/03 03:51:28;;;;;;;4.28;3.78;;;;;;;21.21;37.85;100154.28;5044695;28;20028;-49
2021/09/03 03:53:53;;;;;;;7.68;4.13;;;;;;;21.22;38.13;100160.50;5038680;28;20029;-50
2021/09/03 03:56:19;;;;;;;6.38;4.00;;;;;;;21.07;38.33;100159.34;5029137;28;20025;-50
2021/09/03 03:58:44;;;;;;;7.55;3.80;;;;;;;21.05;38.31;100160.69;5043735;28;20025;-50
2021/09/03 04:01:10;;;;;;;6.40;3.92;;;;;;;21.07;38.53;100166.66;5034211;28;20028;-47
2021/09/03 04:03:35;;;;;;;8.02;4.55;;;;;;;20.97;42.33;100169.31;5047236;28;20025;-47
2021/09/03 04:06:01;;;;;;;9.63;4.28;;;;;;;21.15;38.53;100170.75;5041821;28;20017;-48
2021/09/03 04:08:26;;;;;;;6.68;4.13;;;;;;;21.11;38.44;100170.47;5040265;28;20044;-48
2021/09/03 04:10:52;;;;;;;6.65;4.10;;;;;;;21.02;39.53;100172.06;5048527;28;20122;-47
2021/09/03 04:13:19;;;;;;;9.52;4.03;;;;;;;21.21;38.46;100175.94;5035936;28;20112;-49
2021/09/03 04:15:45;;;;;;;6.20;3.97;;;;;;;21.34;38.31;100165.69;5046280;28;20061;-48
2021/09/03 04:18:10;;;;;;;5.07;3.85;;;;;;;21.55;38.24;100178.28;5041118;28;20024;-49
2021/09/03 04:20:36;;;;;;;5.13;3.90;;;;;;;21.64;37.91;100179.38;5038702;28;20076;-48
2021/09/03 04:23:01;;;;;;;6.60;4.00;;;;;;;21.86;40.31;100189.19;5048939;28;20139;-49
2021/09/03 04:25:26;;;;;;;6.80;4.10;;;;;;;22.14;37.18;100190.59;5032317;28;20021;-49
2021/09/03 04:27:52;;;;;;;7.47;4.20;;;;;;;22.37;36.80;100197.41;5039568;28;20021;-37
2021/09/03 04:30:17;;;;;;;7.30;4.47;;;;;;;22.53;36.71;100192.81;5052593;28;20025;-37
2021/09/03 04:32:43;;;;;;;7.47;4.05;;;;;;;22.72;36.17;100200.38;5052526;28;20433;-36
2021/09/03 04:35:09;;;;;;;7.00;4.40;;;;;;;22.93;36.08;100204.69;5050834;28;20136;-35
2021/09/03 04:37:45;;;;;;;5.47;4.03;;;;;;;23.09;35.24;100208.19;5037521;28;20476;-35
2021/09/03 04:40:12;;;;;;;5.85;4.05;;;;;;;23.32;34.57;100211.38;5052609;28;20140;-37
2021/09/03 04:42:37;;;;;;;8.30;4.85;;;;;;;23.54;34.48;100217.28;5052918;28;20057;-36
2021/09/03 04:45:03;;;;;;;9.60;6.55;;;;;;;22.88;35.23;100210.13;5050525;28;20497;-36
2021/09/03 04:47:29;;;;;;;10.63;6.90;;;;;;;22.05;36.91;100212.00;5036687;28;20021;-36
2021/09/03 04:49:54;;;;;;;8.02;4.10;;;;;;;22.10;37.36;100218.50;5043945;28;20025;-37
2021/09/03 04:52:19;;;;;;;4.63;3.90;;;;;;;22.31;36.41;100211.22;5041920;28;20028;-36
2021/09/03 04:54:45;;;;;;;6.22;3.63;;;;;;;22.47;36.13;100221.00;5034983;28;20025;-37
2021/09/03 04:57:10;;;;;;;8.02;4.00;;;;;;;22.62;35.72;100222.91;5046440;28;20489;-36
2021/09/03 04:59:36;;;;;;;5.93;3.97;;;;;;;22.85;35.60;100226.97;5035625;28;20447;-36
2021/09/03 05:02:01;;;;;;;7.97;4.50;;;;;;;23.01;35.40;100223.13;5041226;28;20025;-36
2021/09/03 05:04:27;;;;;;;9.00;4.00;;;;;;;23.03;35.48;100225.59;5042435;28;20248;-36
2021/09/03 05:06:52;;;;;;;6.72;4.00;;;;;;;23.22;35.29;100217.66;5034300;28;20025;-37
2021/09/03 05:09:18;;;;;;;8.55;3.95;;;;;;;23.33;35.31;100223.88;5047753;28;20060;-36
2021/09/03 05:11:43;;;;;;;7.78;4.40;;;;;;;23.67;34.63;100231.38;5031974;28;20022;-36
2021/09/03 05:14:09;;;;;;;10.43;4.25;;;;;;;23.60;34.47;100231.66;5041463;28;20028;-37
2021/09/03 05:16:34;;;;;;;11.48;4.43;;;;;;;23.64;33.86;100231.91;5038303;28;20032;-37
2021/09/03 05:18:59;;;;;;;8.93;4.55;;;;;;;23.69;34.25;100235.41;5048206;28;20086;-36
2021/09/03 05:21:25;;;;;;;5.18;3.88;;;;;;;23.91;33.64;100232.38;5035755;28;20029;-37
2021/09/03 05:23:50;;;;;;;7.22;4.30;;;;;;;24.21;33.36;100233.25;5044057;28;20025;-37
2021/09/03 05:26:16;;;;;;;9.23;4.00;;;;;;;24.33;33.42;100238.31;5037764;28;20075;-36
2021/09/03 05:28:41;;;;;;;6.43;4.00;;;;;;;24.67;32.56;100230.19;5031474;28;20021;-37
2021/09/03 05:31:07;;;;;;;10.73;4.20;;;;;;;24.82;32.47;100237.41;5031556;28;20064;-36
2021/09/03 05:33:32;;;;;;;6.80;3.97;;;;;;;24.88;32.07;100241.69;5036435;28;20032;-36
2021/09/03 05:35:58;;;;;;;9.20;4.20;;;;;;;24.87;32.11;100242.81;5042903;28;20486;-37
2021/09/03 05:38:23;;;;;;;8.65;4.43;;;;;;;24.75;32.98;100242.38;5042910;28;20020;-37
2021/09/03 05:40:49;;;;;;;15.63;4.30;;;;;;;25.02;32.48;100241.03;5035590;28;20041;-37
2021/09/03 05:43:16;;;;;;;9.57;4.28;;;;;;;25.25;31.69;100239.47;5047612;28;20453;-37
2021/09/03 05:45:41;;;;;;;9.18;4.20;;;;;;;25.94;30.77;100238.06;5032107;28;20033;-37
2021/09/03 05:48:07;;;;;;;5.22;3.78;;;;;;;26.26;29.98;100241.16;5030892;28;20021;-37
2021/09/03 05:50:32;;;;;;;5.30;3.78;;;;;;;26.03;30.05;100238.22;5044581;28;20465;-37
2021/09/03 05:52:58;;;;;;;6.05;4.13;;;;;;;26.16;30.25;100228.50;5034186;28;20169;-37
2021/09/03 05:55:23;;;;;;;11.35;4.20;;;;;;;26.21;29.89;100238.50;5034306;28;20440;-37
2021/09/03 05:57:52;;;;;;;6.25;4.00;;;;;;;27.22;28.29;100239.81;5043409;28;20022;-37
2021/09/03 06:00:17;;;;;;;;;;;;;;;26.74;29.02;100238.22;5031075;28;20113;-37
2021/09/03 06:02:43;;;;;;;7.00;4.13;;;;;;;26.85;29.52;100242.41;5045357;28;19960;-38
2021/09/03 06:05:09;;;;;;;6.97;3.92;;;;;;;27.05;28.49;100237.66;5033900;28;20025;-37
2021/09/03 06:07:34;;;;;;;8.52;3.92;;;;;;;27.16;28.19;100241.81;5045531;28;20037;-37
2021/09/03 06:10:00;;;;;;;6.30;3.80;;;;;;;27.87;27.23;100256.00;5038778;28;20033;-37
2021/09/03 06:12:25;;;;;;;5.70;3.90;;;;;;;27.71;27.31;100262.09;5038006;28;20512;-37
2021/09/03 06:14:51;;;;;;;7.40;3.72;;;;;;;27.77;27.33;100255.41;5044539;28;20221;-37
2021/09/03 06:17:18;;;;;;;5.70;3.65;;;;;;;27.79;27.41;100255.91;5033404;28;20033;-37
2021/09/03 06:19:44;;;;;;;6.43;3.70;;;;;;;28.59;26.83;100259.84;5044277;28;20033;-38
2021/09/03 06:22:09;;;;;;;6.32;4.15;;;;;;;28.60;26.75;100258.72;5040608;28;20017;-36
2021/09/03 06:24:35;;;;;;;6.85;4.00;;;;;;;28.39;26.39;100257.59;5036170;28;20139;-37
2021/09/03 06:27:03;;;;;;;7.53;3.75;;;;;;;28.34;26.71;100268.66;5046343;28;20036;-37
2021/09/03 06:29:43;;;;;;;8.95;4.18;;;;;;;28.43;26.60;100269.53;5034705;28;20074;-38
2021/09/03 06:32:14;;;;;;;5.50;3.53;;;;;;;28.50;26.28;100253.47;5040301;28;20021;-37
2021/09/03 06:34:42;;;;;;;7.10;3.67;;;;;;;28.29;26.54;100253.16;5043644;28;20017;-37
2021/09/03 06:37:07;;;;;;;10.90;3.83;;;;;;;28.70;25.95;100262.34;5033669;28;20060;-37
2021/09/03 06:39:33;;;;;;;10.73;3.80;;;;;;;29.08;25.46;100268.19;5045135;28;20162;-37
2021/09/03 06:41:58;;;;;;;8.13;3.90;;;;;;;29.08;25.28;100259.97;5038251;28;20043;-37
2021/09/03 06:44:24;;;;;;;4.15;3.28;;;;;;;29.88;24.30;100262.69;5037645;28;20108;-37
2021/09/03 06:46:49;;;;;;;5.30;3.40;;;;;;;29.59;25.13;100257.75;5029537;28;20037;-37
2021/09/03 06:49:15;;;;;;;7.45;3.50;;;;;;;29.16;25.23;100255.69;5042507;28;20052;-37
2021/09/03 06:51:40;;;;;;;5.00;3.47;;;;;;;29.30;25.22;100256.38;5039149;28;20025;-37
2021/09/03 06:54:06;;;;;;;5.68;3.95;;;;;;;30.16;23.88;100256.91;5039521;28;20017;-37
2021/09/03 06:56:31;;;;;;;8.48;3.70;;;;;;;29.47;24.90;100252.06;5040736;28;20442;-37
2021/09/03 06:58:59;;;;;;;8.15;3.88;;;;;;;29.23;25.18;100250.56;5045000;28;20074;-38
2021/09/03 07:01:24;;;;;;;4.65;3.67;;;;;;;29.32;25.03;100256.88;5034069;28;20025;-36
2021/09/03 07:03:50;;;;;;;5.70;3.58;;;;;;;29.85;24.55;100259.75;5042299;28;20053;-37
2021/09/03 07:06:15;;;;;;;6.00;3.75;;;;;;;30.58;23.61;100255.28;5040327;28;20021;-37
2021/09/03 07:08:41;;;;;;;8.25;3.97;;;;;;;30.12;24.21;100245.75;5035411;28;20097;-37
2021/09/03 07:11:06;;;;;;;8.07;4.30;;;;;;;29.61;24.62;100253.56;5046645;28;20485;-38
2021/09/03 07:13:32;;;;;;;6.70;3.63;;;;;;;29.72;25.22;100265.06;5034708;28;20025;-37
2021/09/03 07:15:57;;;;;;;6.75;3.42;;;;;;;30.45;23.95;100260.94;5041386;28;20025;-35
2021/09/03 07:18:23;;;;;;;4.88;3.15;;;;;;;30.65;22.84;100257.50;5041920;28;20118;-37
2021/09/03 07:20:48;;;;;;;4.82;3.78;;;;;;;29.84;23.80;100261.72;5034059;28;20489;-37
2021/09/03 07:23:13;;;;;;;5.32;3.75;;;;;;;29.05;25.19;100264.16;5046157;28;20389;-37
2021/09/03 07:25:39;;;;;;;5.00;3.78;;;;;;;29.53;24.40;100257.09;5028968;28;20021;-37
2021/09/03 07:28:04;;;;;;;5.15;3.63;;;;;;;30.36;24.21;100258.19;5037489;28;20036;-38
2021/09/03 07:30:30;;;;;;;5.63;3.60;;;;;;;30.70;23.56;100265.59;5036718;28;20032;-37
2021/09/03 07:32:55;;;;;;;7.85;3.78;;;;;;;29.26;25.57;100271.81;5045874;28;20429;-37
2021/09/03 07:35:21;;;;;;;9.15;3.97;;;;;;;28.39;26.48;100280.28;5033282;28;20082;-37
2021/09/03 07:37:46;;;;;;;11.75;3.70;;;;;;;28.40;26.58;100270.94;5046491;28;20025;-37
2021/09/03 07:40:12;;;;;;;7.40;3.80;;;;;;;29.02;26.40;100274.94;5044094;28;20021;-37
2021/09/03 07:42:37;;;;;;;8.10;4.03;;;;;;;28.69;26.63;100269.72;5037656;28;20128;-37
2021/09/03 07:45:04;;;;;;;5.28;3.67;;;;;;;28.92;26.03;100267.78;5049325;28;20028;-37
2021/09/03 07:47:29;;;;;;;7.30;4.18;;;;;;;28.77;26.29;100269.00;5049332;28;20119;-37
2021/09/03 07:49:55;;;;;;;5.85;3.80;;;;;;;29.11;25.67;100262.09;5041644;28;20029;-37
2021/09/03 07:52:21;;;;;;;12.93;4.20;;;;;;;29.05;26.39;100268.81;5041438;28;20017;-37
2021/09/03 07:54:46;;;;;;;6.90;3.72;;;;;;;28.79;26.16;100265.94;5048545;28;20032;-39
2021/09/03 07:57:12;;;;;;;7.03;3.78;;;;;;;27.91;27.40;100263.59;5034838;28;20440;-37
2021/09/03 07:59:37;;;;;;;6.20;3.80;;;;;;;28.31;26.60;100266.53;5047212;28;20024;-37
2021/09/03 08:02:03;;;;;;;7.32;3.90;;;;;;;28.57;26.13;100264.81;5033446;28;20021;-37
2021/09/03 08:04:30;;;;;;;6.55;4.40;;;;;;;28.70;26.16;100265.06;5041750;28;20512;-37
2021/09/03 08:06:55;;;;;;;9.25;4.13;;;;;;;28.61;26.47;100265.81;5038975;28;20109;-37
2021/09/03 08:09:21;;;;;;;6.72;4.00;;;;;;;28.65;26.26;100268.72;5044568;28;20139;-38
2021/09/03 08:11:46;;;;;;;8.63;4.53;;;;;;;28.26;27.00;100262.00;5042610;28;20033;-37
2021/09/03 08:14:12;;;;;;;7.22;3.90;;;;;;;28.15;27.44;100261.41;5041746;28;20059;-37
2021/09/03 08:16:37;;;;;;;8.02;4.10;;;;;;;28.43;26.42;100262.13;5042643;28;20017;-37
2021/09/03 08:19:04;;;;;;;8.18;4.10;;;;;;;28.20;27.21;100249.56;5041874;28;20021;-37
2021/09/03 08:21:30;;;;;;;7.35;4.20;;;;;;;27.03;29.12;100253.53;5037161;28;20389;-37
2021/09/03 08:23:55;;;;;;;5.97;3.72;;;;;;;26.44;29.71;100232.13;5045605;28;20098;-37
2021/09/03 08:26:20;;;;;;;6.80;4.07;;;;;;;26.46;30.02;100259.13;5042344;28;20036;-38
2021/09/03 08:28:46;;;;;;;6.25;3.90;;;;;;;27.28;28.42;100236.72;5042986;28;20017;-37
2021/09/03 08:31:11;;;;;;;4.60;3.80;;;;;;;27.17;28.52;100245.34;5046302;28;20417;-38
2021/09/03 08:33:37;;;;;;;7.43;4.25;;;;;;;26.47;29.39;100236.19;5037463;28;20158;-37
2021/09/03 08:36:02;;;;;;;5.47;4.00;;;;;;;26.47;29.46;100236.19;5052472;28;20021;-38
2021/09/03 08:38:28;;;;;;;6.68;4.10;;;;;;;27.10;28.47;100232.13;5043121;28;20028;-37
2021/09/03 08:40:58;;;;;;;7.07;3.92;;;;;;;27.99;27.82;100236.34;5039239;28;20026;-36
2021/09/03 08:43:24;;;;;;;6.03;4.03;;;;;;;28.72;26.85;100228.03;5043447;28;20039;-38
2021/09/03 08:45:50;;;;;;;9.43;4.28;;;;;;;28.91;25.96;100227.00;5043339;28;20108;-37
2021/09/03 08:48:19;;;;;;;5.20;3.90;;;;;;;27.68;27.20;100226.06;5040188;28;20509;-37
2021/09/03 08:50:46;;;;;;;9.45;4.35;;;;;;;27.55;27.42;100232.34;5046913;28;20032;-37
2021/09/03 08:53:15;;;;;;;5.68;4.05;;;;;;;27.26;27.98;100219.00;5048551;28;20028;-37
2021/09/03 08:55:43;;;;;;;5.43;3.95;;;;;;;26.91;28.18;100204.88;5038369;28;20036;-37
2021/09/03 08:58:08;;;;;;;6.57;3.90;;;;;;;27.65;27.49;100209.47;5042096;28;20025;-36
2021/09/03 09:00:35;;;;;;;5.95;3.92;;;;;;;28.06;27.14;100195.72;5045675;28;20025;-37
2021/09/03 09:03:10;;;;;;;5.43;4.15;;;;;;;27.25;28.05;100193.59;5035247;28;20022;-37
2021/09/03 09:05:48;;;;;;;6.53;3.78;;;;;;;28.07;26.41;100194.56;5046242;28;20083;-36
2021/09/03 09:08:14;;;;;;;6.57;3.70;;;;;;;28.49;26.59;100193.59;5042112;28;20068;-37
2021/09/03 09:10:46;;;;;;;4.40;3.53;;;;;;;28.37;26.62;100191.38;5037432;28;20524;-37
2021/09/03 09:13:24;;;;;;;8.32;3.80;;;;;;;27.34;27.69;100192.88;5047807;28;20017;-37
2021/09/03 09:16:19;;;;;;;6.57;3.70;;;;;;;27.74;27.31;100193.13;5039152;28;20096;-37
2021/09/03 09:18:47;;;;;;;6.20;3.85;;;;;;;27.26;27.55;100183.47;5035806;28;20508;-36
2021/09/03 09:21:14;;;;;;;8.80;3.80;;;;;;;27.17;28.04;100177.91;5048279;28;20104;-37
2021/09/03 09:24:07;;;;;;;5.00;4.00;;;;;;;26.77;28.91;100168.56;5031603;28;20025;-37
2021/09/03 09:27:05;;;;;;;5.43;3.83;;;;;;;27.69;27.95;100177.66;5044603;28;20497;-38
2021/09/03 09:29:31;;;;;;;4.53;3.60;;;;;;;26.86;27.54;100175.75;5035057;28;20037;-37
2021/09/03 09:32:03;;;;;;;7.43;3.83;;;;;;;27.06;27.57;100160.91;5042716;28;20099;-37
2021/09/03 09:34:30;;;;;;;4.95;3.60;;;;;;;27.43;27.29;100161.81;5031378;28;20087;-37
2021/09/03 09:36:56;;;;;;;5.68;3.42;;;;;;;27.44;27.37;100148.97;5030248;28;20025;-37
2021/09/03 09:39:23;;;;;;;5.57;3.60;;;;;;;27.72;26.87;100157.09;5035157;28;20025;-37
2021/09/03 09:42:02;;;;;;;5.53;3.47;;;;;;;27.34;27.40;100157.38;5043868;28;20021;-38
2021/09/03 09:44:31;;;;;;;5.05;3.38;;;;;;;27.28;27.25;100152.03;5031461;28;20099;-38
2021/09/03 09:47:06;;;;;;;;;;;;;;;27.35;27.78;100159.78;5031958;28;20116;-37
2021/09/03 09:49:32;;;;;;;6.22;3.58;;;;;;;27.48;27.55;100152.69;5044872;28;19975;-38
2021/09/03 09:51:57;;;;;;;5.50;3.47;;;;;;;27.96;26.81;100140.44;5030820;28;20425;-37
2021/09/03 09:54:25;;;;;;;9.02;3.58;;;;;;;27.93;27.39;100128.19;5043160;28;20028;-38
2021/09/03 09:56:52;;;;;;;5.70;3.08;;;;;;;28.21;27.23;100125.31;5034610;28;20028;-38
2021/09/03 09:59:18;;;;;;;4.10;3.25;;;;;;;27.86;27.77;100116.84;5046801;28;20552;-36
2021/09/03 10:01:48;;;;;;;5.10;3.03;;;;;;;27.70;27.61;100127.31;5037371;28;20398;-37
2021/09/03 10:04:18;;;;;;;5.10;3.55;;;;;;;27.23;28.42;100118.53;5039818;28;20480;-38
2021/09/03 10:06:44;;;;;;;3.90;3.10;;;;;;;27.58;28.01;100105.19;5045048;28;20017;-39
2021/09/03 10:09:14;;;;;;;5.18;3.38;;;;;;;27.90;27.97;100101.47;5033757;28;20049;-37
2021/09/03 10:11:44;;;;;;;10.48;4.03;;;;;;;28.10;28.08;100108.34;5044171;28;20160;-38
2021/09/03 10:14:12;;;;;;;7.53;3.25;;;;;;;27.76;28.15;100101.50;5040494;28;20024;-37
2021/09/03 10:16:37;;;;;;;4.95;3.20;;;;;;;27.60;28.19;100098.31;5036530;28;20402;-37
2021/09/03 10:19:06;;;;;;;7.13;3.42;;;;;;;26.78;29.61;100107.41;5047119;28;20016;-37
2021/09/03 10:21:36;;;;;;;5.07;3.40;;;;;;;26.87;29.49;100098.22;5034391;28;20032;-37
2021/09/03 10:24:29;;;;;;;4.18;3.35;;;;;;;27.39;28.83;100070.63;5039836;28;20063;-37
2021/09/03 10:26:55;;;;;;;5.95;3.50;;;;;;;28.08;27.87;100100.47;5044678;28;20470;-37
2021/09/03 10:29:23;;;;;;;4.45;3.40;;;;;;;28.20;27.58;100085.41;5033597;28;20393;-37
2021/09/03 10:32:07;;;;;;;6.55;3.33;;;;;;;27.23;28.55;100091.19;5043732;28;20142;-37
2021/09/03 10:34:50;;;;;;;6.78;3.28;;;;;;;27.41;28.59;100116.78;5030655;28;20021;-37
2021/09/03 10:37:18;;;;;;;6.55;3.00;;;;;;;27.40;28.77;100102.31;5032981;28;20036;-38
2021/09/03 10:40:12;;;;;;;5.15;3.03;;;;;;;27.24;28.98;100090.88;5043752;28;20399;-37
2021/09/03 10:42:38;;;;;;;6.15;3.40;;;;;;;27.23;29.10;100099.41;5043831;28;20028;-37
2021/09/03 10:45:15;;;;;;;8.05;3.42;;;;;;;27.00;29.50;100087.59;5032274;28;20437;-37
2021/09/03 10:47:40;;;;;;;4.35;3.00;;;;;;;27.12;28.91;100098.78;5030241;28;20057;-37
2021/09/03 10:50:34;;;;;;;7.43;3.17;;;;;;;26.88;29.83;100091.66;5037922;28;20092;-37
2021/09/03 10:53:03;;;;;;;6.60;2.90;;;;;;;26.83;29.69;100089.00;5013040;28;20147;-38
2021/09/03 10:55:53;;;;;;;4.43;3.20;;;;;;;26.86;29.37;100084.84;5045883;28;20018;-37
2021/09/03 10:58:29;;;;;;;;;;;;;;;26.96;29.80;100086.56;5041873;28;20765;-38
2021/09/03 11:01:10;;;;;;;4.88;3.35;;;;;;;27.00;29.35;100072.00;5033517;28;19909;-38
2021/09/03 11:03:45;;;;;;;5.13;3.03;;;;;;;27.28;29.08;100075.53;5034922;28;20038;-37
2021/09/03 11:06:14;;;;;;;4.47;3.13;;;;;;;27.76;28.19;100074.16;5039127;28;20021;-38
2021/09/03 11:08:40;;;;;;;5.70;3.38;;;;;;;27.44;28.55;100070.53;5043618;28;20017;-38
2021/09/03 11:11:28;;;;;;;6.60;3.50;;;;;;;27.56;28.41;100063.72;5031172;28;20025;-37
2021/09/03 11:14:14;;;;;;;7.47;3.45;;;;;;;27.79;28.18;100072.72;5029597;28;20035;-37
2021/09/03 11:16:44;;;;;;;4.97;3.00;;;;;;;28.12;27.44;100058.78;5044093;28;20102;-37
2021/09/03 11:19:11;;;;;;;6.00;3.22;;;;;;;27.82;27.75;100081.13;5031198;28;20021;-37
2021/09/03 11:21:39;;;;;;;4.70;3.20;;;;;;;27.18;28.47;100070.25;5035721;28;20017;-37
2021/09/03 11:24:05;;;;;;;4.43;2.83;;;;;;;27.43;28.47;100059.91;5039711;28;20061;-37